createdAt,value
2023-04-15T00:01:19.352Z,21.80
2023-04-15T00:03:21.914Z,21.80
2023-04-15T00:05:23.806Z,21.80
2023-04-15T00:07:25.494Z,21.80
2023-04-15T00:09:27.202Z,21.80
2023-04-15T00:11:28.912Z,21.70
2023-04-15T00:13:30.717Z,21.70
2023-04-15T00:15:32.677Z,21.80
2023-04-15T00:17:34.465Z,21.70
2023-04-15T00:19:36.772Z,21.80
2023-04-15T00:21:38.408Z,21.70
2023-04-15T00:23:40.058Z,21.70
2023-04-15T00:25:41.710Z,21.70
2023-04-15T00:27:43.673Z,21.70
2023-04-15T00:29:45.370Z,21.70
2023-04-15T00:31:47.047Z,21.70
2023-04-15T00:33:48.687Z,21.70
2023-04-15T00:35:50.910Z,21.70
2023-04-15T00:37:52.615Z,21.70
2023-04-15T00:39:54.219Z,21.70
2023-04-15T00:41:55.965Z,21.70
2023-04-15T00:43:57.670Z,21.60
2023-04-15T00:46:00.895Z,21.70
2023-04-15T00:48:03.389Z,21.70
2023-04-15T00:50:05.647Z,21.70
2023-04-15T00:52:07.367Z,21.70
2023-04-15T00:54:09.045Z,21.70
2023-04-15T00:56:10.745Z,21.70
2023-04-15T00:58:12.441Z,21.60
2023-04-15T01:00:14.330Z,21.70
2023-04-15T01:02:16.420Z,21.60
2023-04-15T01:04:18.404Z,21.60
2023-04-15T01:06:20.553Z,21.60
2023-04-15T01:08:22.225Z,21.60
2023-04-15T01:10:23.959Z,21.60
2023-04-15T01:12:27.803Z,21.60
2023-04-15T01:14:29.412Z,21.50
2023-04-15T01:16:32.024Z,21.50
2023-04-15T01:18:33.763Z,21.60
2023-04-15T01:20:36.346Z,21.50
2023-04-15T01:22:38.370Z,21.50
2023-04-15T01:24:40.327Z,21.50
2023-04-15T01:26:43.509Z,21.60
2023-04-15T01:28:46.278Z,21.50
2023-04-15T01:30:48.373Z,21.50
2023-04-15T01:32:49.975Z,21.50
2023-04-15T01:34:52.124Z,21.50
2023-04-15T01:36:53.819Z,21.50
2023-04-15T01:38:57.330Z,21.50
2023-04-15T01:40:59.354Z,21.50
2023-04-15T01:43:02.122Z,21.50
2023-04-15T01:45:04.104Z,21.50
2023-04-15T01:47:06.853Z,21.40
2023-04-15T01:49:08.477Z,21.40
2023-04-15T01:51:10.297Z,21.40
2023-04-15T01:53:12.011Z,21.40
2023-04-15T01:55:14.026Z,21.50
2023-04-15T01:57:15.792Z,21.50
2023-04-15T01:59:17.793Z,21.50
2023-04-15T02:01:22.440Z,21.50
2023-04-15T02:03:25.551Z,21.40
2023-04-15T02:05:27.687Z,21.40
2023-04-15T02:07:32.196Z,21.40
2023-04-15T02:09:34.017Z,21.40
2023-04-15T02:11:37.217Z,21.40
2023-04-15T02:13:38.941Z,21.40
2023-04-15T02:15:40.914Z,21.40
2023-04-15T02:17:45.839Z,21.40
2023-04-15T02:19:48.147Z,21.40
2023-04-15T02:21:49.781Z,21.40
2023-04-15T02:23:53.962Z,21.40
2023-04-15T02:25:55.794Z,21.40
2023-04-15T02:27:58.102Z,21.40
2023-04-15T02:29:59.768Z,21.40
2023-04-15T02:32:01.714Z,21.30
2023-04-15T02:34:04.393Z,21.30
2023-04-15T02:36:07.471Z,21.30
2023-04-15T02:38:09.301Z,21.30
2023-04-15T02:40:12.201Z,21.40
2023-04-15T02:42:13.847Z,21.30
2023-04-15T02:44:15.607Z,21.30
2023-04-15T02:46:17.510Z,21.20
2023-04-15T02:48:20.324Z,21.30
2023-04-15T02:50:23.540Z,21.30
2023-04-15T02:52:25.280Z,21.30
2023-04-15T02:54:30.347Z,21.30
2023-04-15T02:56:31.977Z,21.20
2023-04-15T02:58:34.792Z,21.30
2023-04-15T03:00:36.561Z,21.30
2023-04-15T03:02:39.489Z,21.30
2023-04-15T03:04:41.421Z,21.30
2023-04-15T03:06:43.035Z,21.30
2023-04-15T03:08:45.145Z,21.20
2023-04-15T03:10:47.245Z,21.20
2023-04-15T03:12:49.264Z,21.20
2023-04-15T03:14:51.181Z,21.20
2023-04-15T03:16:52.889Z,21.20
2023-04-15T03:18:54.569Z,21.20
2023-04-15T03:20:56.244Z,21.30
2023-04-15T03:22:57.978Z,21.20
2023-04-15T03:24:59.581Z,21.20
2023-04-15T03:27:01.874Z,21.20
2023-04-15T03:29:03.677Z,21.20
2023-04-15T03:31:05.568Z,21.20
2023-04-15T03:33:07.256Z,21.20
2023-04-15T03:35:09.646Z,21.10
2023-04-15T03:37:11.253Z,21.20
2023-04-15T03:39:13.045Z,21.20
2023-04-15T03:41:14.832Z,21.20
2023-04-15T03:43:16.628Z,21.20
2023-04-15T03:45:18.312Z,21.20
2023-04-15T03:47:20.007Z,21.20
2023-04-15T03:49:22.958Z,21.20
2023-04-15T03:51:24.694Z,21.20
2023-04-15T03:53:26.307Z,21.20
2023-04-15T03:55:27.928Z,21.20
2023-04-15T03:57:29.807Z,21.20
2023-04-15T03:59:31.469Z,21.20
2023-04-15T04:01:33.138Z,21.10
2023-04-15T04:03:34.973Z,21.20
2023-04-15T04:05:38.876Z,21.20
2023-04-15T04:07:40.545Z,21.20
2023-04-15T04:09:42.208Z,21.20
2023-04-15T04:11:45.490Z,21.30
2023-04-15T04:13:47.134Z,21.30
2023-04-15T04:15:48.828Z,21.40
2023-04-15T04:17:50.886Z,21.50
2023-04-15T04:19:52.630Z,21.50
2023-04-15T04:21:54.280Z,21.70
2023-04-15T04:23:56.762Z,21.70
2023-04-15T04:25:58.499Z,21.80
2023-04-15T04:28:00.238Z,21.90
2023-04-15T04:30:02.013Z,21.80
2023-04-15T04:32:03.752Z,21.90
2023-04-15T04:34:05.433Z,21.90
2023-04-15T04:36:07.549Z,21.90
2023-04-15T04:38:09.220Z,21.90
2023-04-15T04:40:11.378Z,22.00
2023-04-15T04:42:13.194Z,22.00
2023-04-15T04:44:14.865Z,22.00
2023-04-15T04:46:16.607Z,22.00
2023-04-15T04:48:18.609Z,22.00
2023-04-15T04:50:20.401Z,22.00
2023-04-15T04:52:22.045Z,22.10
2023-04-15T04:54:23.861Z,22.10
2023-04-15T04:56:25.589Z,22.10
2023-04-15T04:58:27.354Z,22.10
2023-04-15T05:00:29.652Z,22.10
2023-04-15T05:02:32.506Z,22.10
2023-04-15T05:04:34.612Z,22.00
2023-04-15T05:06:36.958Z,22.00
2023-04-15T05:08:40.311Z,22.00
2023-04-15T05:10:42.121Z,21.90
2023-04-15T05:12:44.111Z,21.90
2023-04-15T05:14:46.777Z,21.90
2023-04-15T05:16:48.651Z,21.90
2023-04-15T05:18:50.294Z,21.90
2023-04-15T05:20:51.909Z,21.80
2023-04-15T05:22:53.516Z,21.80
2023-04-15T05:24:55.450Z,21.80
2023-04-15T05:26:57.316Z,21.80
2023-04-15T05:28:59.057Z,21.80
2023-04-15T05:31:01.299Z,21.80
2023-04-15T05:33:03.810Z,21.80
2023-04-15T05:35:06.528Z,21.80
2023-04-15T05:37:08.384Z,21.80
2023-04-15T05:39:10.045Z,21.80
2023-04-15T05:41:12.109Z,21.70
2023-04-15T05:43:13.722Z,21.70
2023-04-15T05:45:15.420Z,21.80
2023-04-15T05:47:17.157Z,21.70
2023-04-15T05:49:18.890Z,21.70
2023-04-15T05:51:20.794Z,21.70
2023-04-15T05:53:22.416Z,21.70
2023-04-15T05:55:24.070Z,21.70
2023-04-15T05:57:25.712Z,21.70
2023-04-15T05:59:28.360Z,21.70
2023-04-15T06:01:30.449Z,21.70
2023-04-15T06:03:32.324Z,21.70
2023-04-15T06:05:34.610Z,21.70
2023-04-15T06:07:37.058Z,21.70
2023-04-15T06:09:38.713Z,21.70
2023-04-15T06:11:41.330Z,21.70
2023-04-15T06:13:42.951Z,21.70
2023-04-15T06:15:44.591Z,21.70
2023-04-15T06:17:46.286Z,21.70
2023-04-15T06:19:47.908Z,21.70
2023-04-15T06:21:49.615Z,21.70
2023-04-15T06:23:51.281Z,21.80
2023-04-15T06:25:53.615Z,21.80
2023-04-15T06:27:55.324Z,21.80
2023-04-15T06:29:57.104Z,21.80
2023-04-15T06:31:58.765Z,21.80
2023-04-15T06:34:00.660Z,21.80
2023-04-15T06:36:02.370Z,21.80
2023-04-15T06:38:03.980Z,21.80
2023-04-15T06:40:06.268Z,21.90
2023-04-15T06:42:07.893Z,21.80
2023-04-15T06:44:09.570Z,21.90
2023-04-15T06:46:11.566Z,21.90
2023-04-15T06:48:13.585Z,21.90
2023-04-15T06:50:15.333Z,21.90
2023-04-15T06:52:17.546Z,21.90
2023-04-15T06:54:19.173Z,21.90
2023-04-15T06:56:20.820Z,21.90
2023-04-15T06:58:22.705Z,21.90
2023-04-15T07:00:24.420Z,21.90
2023-04-15T07:02:26.318Z,21.90
2023-04-15T07:04:28.081Z,21.90
2023-04-15T07:06:29.916Z,21.90
2023-04-15T07:08:32.429Z,21.90
2023-04-15T07:10:34.808Z,21.90
2023-04-15T07:12:36.521Z,22.00
2023-04-15T07:14:38.256Z,21.90
2023-04-15T07:16:39.917Z,21.90
2023-04-15T07:18:41.678Z,21.90
2023-04-15T07:20:43.788Z,21.90
2023-04-15T07:22:45.403Z,21.90
2023-04-15T07:24:47.133Z,21.90
2023-04-15T07:26:48.793Z,21.90
2023-04-15T07:28:50.688Z,21.90
2023-04-15T07:30:52.452Z,21.90
2023-04-15T07:32:54.405Z,21.90
2023-04-15T07:34:56.641Z,21.90
2023-04-15T07:36:58.389Z,21.90
2023-04-15T07:39:02.096Z,21.90
2023-04-15T07:41:04.859Z,21.90
2023-04-15T07:43:06.781Z,21.90
2023-04-15T07:45:09.471Z,21.90
2023-04-15T07:47:11.756Z,21.90
2023-04-15T07:49:13.497Z,22.10
2023-04-15T07:51:15.148Z,22.00
2023-04-15T07:53:16.900Z,22.00
2023-04-15T07:55:21.340Z,22.00
2023-04-15T07:57:22.951Z,22.00
2023-04-15T07:59:24.614Z,22.00
2023-04-15T08:01:26.720Z,21.90
2023-04-15T08:03:28.456Z,21.90
2023-04-15T08:05:30.247Z,21.90
2023-04-15T08:07:32.593Z,21.90
2023-04-15T08:09:34.248Z,21.90
2023-04-15T08:11:36.542Z,21.90
2023-04-15T08:13:38.150Z,21.90
2023-04-15T08:15:39.832Z,21.90
2023-04-15T08:17:41.609Z,21.90
2023-04-15T08:19:43.227Z,21.90
2023-04-15T08:21:45.033Z,21.90
2023-04-15T08:23:48.300Z,21.90
2023-04-15T08:25:50.107Z,21.90
2023-04-15T08:27:57.086Z,21.90
2023-04-15T08:29:59.382Z,21.90
2023-04-15T08:32:01.768Z,22.00
2023-04-15T08:34:03.795Z,22.00
2023-04-15T08:36:06.438Z,22.00
2023-04-15T08:38:08.036Z,22.00
2023-04-15T08:40:10.763Z,22.00
2023-04-15T08:42:17.555Z,22.10
2023-04-15T08:44:20.196Z,22.10
2023-04-15T08:46:23.196Z,22.00
2023-04-15T08:48:28.599Z,22.10
2023-04-15T08:50:32.516Z,22.10
2023-04-15T08:52:34.150Z,22.10
2023-04-15T08:54:36.664Z,22.10
2023-04-15T08:56:39.276Z,22.20
2023-04-15T08:58:41.526Z,22.20
2023-04-15T09:00:43.371Z,22.20
2023-04-15T09:02:45.490Z,22.20
2023-04-15T09:04:47.350Z,22.20
2023-04-15T09:06:49.067Z,22.20
2023-04-15T09:08:52.037Z,22.20
2023-04-15T09:10:54.724Z,22.20
2023-04-15T09:12:57.155Z,22.30
2023-04-15T09:14:59.414Z,22.30
2023-04-15T09:17:03.900Z,22.30
2023-04-15T09:19:22.472Z,22.30
2023-04-15T09:21:25.131Z,22.30
2023-04-15T09:23:27.508Z,22.30
2023-04-15T09:25:31.125Z,22.30
2023-04-15T09:27:37.377Z,22.30
2023-04-15T09:29:41.233Z,22.40
2023-04-15T09:31:43.469Z,22.30
2023-04-15T09:33:58.603Z,22.30
2023-04-15T09:36:01.549Z,22.40
2023-04-15T09:38:09.617Z,22.30
2023-04-15T09:40:11.875Z,22.30
2023-04-15T09:42:13.539Z,22.40
2023-04-15T09:44:25.978Z,22.40
2023-04-15T09:46:44.173Z,22.40
2023-04-15T09:48:46.060Z,22.40
2023-04-15T09:50:53.542Z,22.40
2023-04-15T09:52:55.777Z,22.40
2023-04-15T09:54:58.921Z,22.40
2023-04-15T09:57:06.277Z,22.40
2023-04-15T09:59:08.964Z,22.40
2023-04-15T10:01:11.624Z,22.40
2023-04-15T10:03:15.484Z,22.40
2023-04-15T10:05:18.051Z,22.30
2023-04-15T10:07:22.602Z,22.40
2023-04-15T10:09:24.289Z,22.40
2023-04-15T10:11:29.769Z,22.40
2023-04-15T10:13:35.019Z,22.30
2023-04-15T10:15:37.518Z,22.40
2023-04-15T10:17:42.408Z,22.40
2023-04-15T10:19:44.778Z,22.40
2023-04-15T10:21:46.568Z,22.40
2023-04-15T10:23:48.960Z,22.40
2023-04-15T10:25:54.271Z,22.40
2023-04-15T10:27:57.072Z,22.30
2023-04-15T10:30:00.966Z,22.40
2023-04-15T10:32:03.572Z,22.40
2023-04-15T10:34:06.507Z,22.40
2023-04-15T10:36:08.636Z,22.40
2023-04-15T10:38:36.657Z,22.40
2023-04-15T10:40:39.546Z,22.40
2023-04-15T10:42:41.332Z,22.40
2023-04-15T10:44:45.518Z,22.40
2023-04-15T10:46:47.387Z,22.40
2023-04-15T10:48:53.792Z,22.40
2023-04-15T10:51:02.330Z,22.40
2023-04-15T10:53:07.160Z,22.40
2023-04-15T10:55:20.588Z,22.40
2023-04-15T10:57:23.822Z,22.40
2023-04-15T10:59:25.542Z,22.40
2023-04-15T11:01:54.226Z,22.40
2023-04-15T11:03:56.200Z,22.40
2023-04-15T11:05:58.098Z,22.40
2023-04-15T11:07:59.829Z,22.40
2023-04-15T11:10:01.888Z,22.50
2023-04-15T11:12:10.602Z,22.40
2023-04-15T11:14:16.333Z,22.40
2023-04-15T11:16:18.437Z,22.40
2023-04-15T11:18:26.029Z,22.40
2023-04-15T11:20:27.704Z,22.40
2023-04-15T11:22:29.861Z,22.40
2023-04-15T11:24:31.484Z,22.40
2023-04-15T11:26:33.285Z,22.40
2023-04-15T11:28:37.471Z,22.40
2023-04-15T11:30:42.081Z,22.40
2023-04-15T11:32:44.125Z,22.40
2023-04-15T11:34:46.652Z,22.40
2023-04-15T11:36:48.356Z,22.40
2023-04-15T11:38:50.070Z,22.40
2023-04-15T11:40:52.540Z,22.40
2023-04-15T11:43:16.299Z,22.40
2023-04-15T11:45:18.002Z,22.50
2023-04-15T11:47:23.959Z,22.50
2023-04-15T11:49:33.897Z,22.50
2023-04-15T11:51:36.164Z,22.60
2023-04-15T11:53:42.033Z,22.60
2023-04-15T11:55:50.384Z,22.60
2023-04-15T11:58:10.140Z,22.50
2023-04-15T12:00:12.437Z,22.50
2023-04-15T12:02:14.463Z,22.50
2023-04-15T12:04:22.547Z,22.50
2023-04-15T12:06:34.331Z,22.50
2023-04-15T12:08:59.090Z,22.40
2023-04-15T12:11:00.971Z,22.50
2023-04-15T12:13:06.975Z,22.50
2023-04-15T12:15:10.091Z,22.60
2023-04-15T12:17:13.179Z,22.60
2023-04-15T12:19:17.313Z,22.60
2023-04-15T12:21:20.484Z,22.60
2023-04-15T12:23:22.188Z,22.60
2023-04-15T12:25:35.239Z,22.60
2023-04-15T12:27:37.869Z,22.60
2023-04-15T12:29:41.814Z,22.70
2023-04-15T12:32:07.971Z,22.70
2023-04-15T12:34:09.832Z,22.60
2023-04-15T12:36:11.454Z,22.60
2023-04-15T12:38:13.136Z,22.50
2023-04-15T12:40:14.862Z,22.60
2023-04-15T12:42:17.732Z,22.60
2023-04-15T12:44:19.867Z,22.60
2023-04-15T12:46:21.693Z,22.60
2023-04-15T12:48:23.463Z,22.60
2023-04-15T12:50:25.318Z,22.60
2023-04-15T12:52:26.976Z,22.60
2023-04-15T12:54:29.719Z,22.50
2023-04-15T12:56:31.348Z,22.50
2023-04-15T12:58:33.421Z,22.50
2023-04-15T13:00:35.225Z,22.50
2023-04-15T13:02:36.947Z,22.50
2023-04-15T13:04:38.725Z,22.50
2023-04-15T13:06:40.409Z,22.50
2023-04-15T13:08:47.951Z,22.50
2023-04-15T13:10:57.063Z,22.50
2023-04-15T13:12:58.979Z,22.50
2023-04-15T13:15:00.623Z,22.50
2023-04-15T13:17:04.129Z,22.50
2023-04-15T13:19:05.766Z,22.50
2023-04-15T13:21:07.618Z,22.50
2023-04-15T13:23:09.773Z,22.50
2023-04-15T13:25:11.714Z,22.50
2023-04-15T13:27:13.314Z,22.50
2023-04-15T13:29:14.950Z,22.30
2023-04-15T13:31:16.721Z,22.10
2023-04-15T13:33:18.577Z,21.90
2023-04-15T13:35:21.372Z,21.80
2023-04-15T13:37:30.481Z,21.80
2023-04-15T13:39:32.855Z,22.00
2023-04-15T13:41:35.905Z,22.10
2023-04-15T13:43:37.685Z,22.20
2023-04-15T13:45:39.552Z,22.20
2023-04-15T13:47:41.783Z,22.20
2023-04-15T13:49:44.091Z,22.20
2023-04-15T13:51:47.898Z,22.30
2023-04-15T13:53:49.613Z,22.30
2023-04-15T13:55:51.297Z,22.30
2023-04-15T13:57:52.964Z,22.30
2023-04-15T13:59:54.650Z,22.30
2023-04-15T14:01:56.600Z,22.30
2023-04-15T14:03:58.390Z,22.30
2023-04-15T14:06:00.175Z,22.30
2023-04-15T14:08:01.889Z,22.30
2023-04-15T14:10:04.212Z,22.40
2023-04-15T14:12:06.164Z,22.40
2023-04-15T14:14:08.581Z,22.40
2023-04-15T14:16:10.710Z,22.40
2023-04-15T14:18:12.403Z,22.40
2023-04-15T14:20:16.266Z,22.40
2023-04-15T14:22:18.970Z,22.40
2023-04-15T14:24:20.698Z,22.30
2023-04-15T14:26:22.349Z,22.30
2023-04-15T14:28:24.781Z,22.40
2023-04-15T14:30:26.491Z,22.40
2023-04-15T14:32:28.268Z,22.40
2023-04-15T14:34:30.008Z,22.40
2023-04-15T14:36:32.279Z,22.40
2023-04-15T14:38:38.626Z,22.40
2023-04-15T14:40:41.554Z,22.20
2023-04-15T14:42:43.266Z,22.00
2023-04-15T14:44:44.950Z,21.90
2023-04-15T14:46:46.725Z,21.90
2023-04-15T14:48:48.964Z,22.00
2023-04-15T14:50:50.640Z,22.10
2023-04-15T14:52:52.369Z,22.10
2023-04-15T14:54:54.026Z,22.20
2023-04-15T14:56:56.249Z,22.20
2023-04-15T14:58:57.937Z,22.20
2023-04-15T15:00:59.914Z,22.20
2023-04-15T15:03:02.090Z,22.20
2023-04-15T15:05:04.165Z,22.20
2023-04-15T15:07:06.449Z,22.20
2023-04-15T15:09:08.507Z,22.20
2023-04-15T15:11:10.200Z,22.20
2023-04-15T15:13:12.039Z,22.20
2023-04-15T15:15:28.258Z,22.20
2023-04-15T15:17:31.299Z,22.20
2023-04-15T15:19:33.415Z,22.20
2023-04-15T15:21:35.187Z,22.30
2023-04-15T15:23:36.860Z,22.20
2023-04-15T15:25:38.606Z,22.20
2023-04-15T15:27:40.384Z,22.20
2023-04-15T15:29:42.107Z,22.20
2023-04-15T15:31:43.738Z,22.20
2023-04-15T15:33:45.455Z,22.20
2023-04-15T15:35:47.173Z,22.20
2023-04-15T15:37:48.938Z,22.20
2023-04-15T15:39:52.876Z,22.20
2023-04-15T15:41:54.874Z,22.20
2023-04-15T15:43:56.688Z,22.20
2023-04-15T15:45:58.395Z,22.20
2023-04-15T15:48:01.272Z,22.20
2023-04-15T15:50:04.966Z,22.10
2023-04-15T15:52:08.593Z,22.20
2023-04-15T15:54:10.444Z,22.20
2023-04-15T15:56:12.426Z,22.20
2023-04-15T15:58:14.324Z,22.20
2023-04-15T16:00:16.151Z,22.20
2023-04-15T16:02:17.928Z,22.20
2023-04-15T16:04:19.679Z,22.20
2023-04-15T16:06:21.545Z,22.20
2023-04-15T16:08:23.189Z,22.10
2023-04-15T16:10:24.859Z,22.20
2023-04-15T16:12:27.098Z,22.20
2023-04-15T16:14:28.766Z,22.10
2023-04-15T16:16:30.858Z,22.20
2023-04-15T16:18:34.590Z,22.10
2023-04-15T16:20:39.320Z,22.10
2023-04-15T16:22:41.153Z,22.10
2023-04-15T16:24:42.763Z,22.10
2023-04-15T16:26:44.521Z,22.10
2023-04-15T16:28:46.575Z,22.10
2023-04-15T16:30:48.271Z,22.10
2023-04-15T16:32:49.927Z,22.10
2023-04-15T16:34:52.760Z,22.10
2023-04-15T16:36:54.394Z,22.10
2023-04-15T16:38:56.309Z,22.10
2023-04-15T16:41:00.953Z,22.10
2023-04-15T16:43:03.356Z,22.10
2023-04-15T16:45:05.542Z,22.10
2023-04-15T16:47:08.930Z,22.00
2023-04-15T16:49:11.482Z,22.10
2023-04-15T16:51:13.226Z,22.00
2023-04-15T16:53:16.000Z,22.10
2023-04-15T16:55:17.766Z,22.00
2023-04-15T16:57:19.639Z,22.10
2023-04-15T16:59:21.492Z,22.00
2023-04-15T17:01:23.473Z,22.00
2023-04-15T17:03:25.966Z,22.10
2023-04-15T17:05:27.951Z,22.10
2023-04-15T17:07:29.613Z,22.10
2023-04-15T17:09:31.434Z,22.00
2023-04-15T17:11:33.175Z,22.00
2023-04-15T17:13:34.795Z,22.00
2023-04-15T17:15:36.456Z,22.00
2023-04-15T17:17:38.238Z,22.00
2023-04-15T17:19:39.859Z,22.00
2023-04-15T17:21:41.728Z,21.90
2023-04-15T17:23:43.349Z,22.00
2023-04-15T17:25:45.150Z,22.00
2023-04-15T17:27:46.822Z,22.00
2023-04-15T17:29:48.475Z,22.00
2023-04-15T17:31:50.235Z,22.00
2023-04-15T17:34:00.677Z,22.00
2023-04-15T17:36:09.264Z,21.90
2023-04-15T17:38:11.074Z,22.00
2023-04-15T17:40:13.676Z,22.00
2023-04-15T17:42:15.867Z,21.90
2023-04-15T17:44:17.562Z,22.00
2023-04-15T17:46:19.361Z,21.90
2023-04-15T17:48:21.206Z,21.90
2023-04-15T17:50:23.131Z,21.90
2023-04-15T17:52:24.990Z,21.90
2023-04-15T17:54:26.621Z,21.90
2023-04-15T17:56:29.323Z,21.90
2023-04-15T17:58:31.479Z,21.90
2023-04-15T18:00:33.157Z,21.90
2023-04-15T18:02:36.973Z,21.90
2023-04-15T18:04:39.892Z,21.80
2023-04-15T18:06:41.717Z,21.90
2023-04-15T18:08:43.451Z,21.90
2023-04-15T18:10:45.201Z,21.80
2023-04-15T18:12:48.206Z,21.90
2023-04-15T18:14:49.832Z,21.90
2023-04-15T18:16:52.393Z,21.90
2023-04-15T18:18:54.469Z,21.90
2023-04-15T18:20:56.118Z,21.90
2023-04-15T18:22:57.860Z,21.90
2023-04-15T18:25:03.935Z,21.80
2023-04-15T18:27:05.947Z,21.90
2023-04-15T18:29:07.608Z,21.90
2023-04-15T18:31:09.279Z,22.00
2023-04-15T18:33:11.610Z,21.90
2023-04-15T18:35:13.419Z,22.00
2023-04-15T18:37:15.189Z,21.90
2023-04-15T18:39:16.876Z,21.90
2023-04-15T18:41:18.557Z,21.80
2023-04-15T18:43:20.240Z,21.90
2023-04-15T18:45:21.858Z,21.80
2023-04-15T18:47:26.497Z,21.80
2023-04-15T18:49:28.657Z,21.80
2023-04-15T18:51:30.339Z,21.80
2023-04-15T18:53:32.148Z,21.80
2023-04-15T18:55:34.519Z,21.80
2023-04-15T18:57:37.340Z,21.80
2023-04-15T18:59:39.578Z,21.80
2023-04-15T19:01:41.625Z,21.80
2023-04-15T19:03:43.465Z,21.80
2023-04-15T19:05:45.596Z,21.80
2023-04-15T19:07:47.276Z,21.80
2023-04-15T19:09:49.192Z,21.80
2023-04-15T19:11:51.008Z,21.80
2023-04-15T19:13:53.117Z,21.80
2023-04-15T19:15:54.784Z,21.80
2023-04-15T19:17:56.429Z,21.80
2023-04-15T19:19:58.162Z,21.80
2023-04-15T19:22:01.572Z,21.80
2023-04-15T19:24:03.342Z,21.80
2023-04-15T19:26:05.264Z,21.80
2023-04-15T19:28:06.901Z,21.80
2023-04-15T19:30:08.855Z,21.80
2023-04-15T19:32:10.589Z,21.70
2023-04-15T19:34:12.210Z,21.90
2023-04-15T19:36:13.897Z,21.90
2023-04-15T19:38:16.292Z,21.90
2023-04-15T19:40:17.975Z,21.80
2023-04-15T19:42:19.674Z,21.80
2023-04-15T19:44:21.324Z,21.80
2023-04-15T19:46:23.390Z,21.80
2023-04-15T19:48:25.406Z,21.80
2023-04-15T19:50:27.723Z,21.80
2023-04-15T19:52:29.341Z,21.80
2023-04-15T19:54:32.338Z,21.80
2023-04-15T19:56:34.497Z,21.80
2023-04-15T19:58:36.238Z,21.80
2023-04-15T20:00:38.319Z,21.80
2023-04-15T20:02:40.128Z,21.80
2023-04-15T20:04:41.960Z,21.80
2023-04-15T20:06:43.740Z,21.80
2023-04-15T20:08:45.605Z,21.80
2023-04-15T20:10:47.244Z,21.80
2023-04-15T20:12:51.954Z,21.80
2023-04-15T20:14:54.591Z,21.80
2023-04-15T20:16:56.361Z,21.80
2023-04-15T20:19:04.057Z,21.80
2023-04-15T20:21:05.991Z,21.90
2023-04-15T20:23:07.822Z,21.80
2023-04-15T20:25:09.656Z,21.80
2023-04-15T20:27:11.373Z,21.80
2023-04-15T20:29:13.839Z,21.80
2023-04-15T20:31:15.701Z,21.80
2023-04-15T20:33:17.376Z,21.80
2023-04-15T20:35:19.758Z,21.80
2023-04-15T20:37:22.145Z,21.80
2023-04-15T20:39:23.875Z,21.80
2023-04-15T20:41:25.850Z,21.80
2023-04-15T20:43:27.442Z,21.80
2023-04-15T20:45:29.121Z,21.90
2023-04-15T20:47:31.154Z,21.80
2023-04-15T20:49:37.404Z,21.90
2023-04-15T20:51:39.148Z,21.90
2023-04-15T20:53:41.993Z,21.90
2023-04-15T20:55:44.599Z,21.90
2023-04-15T20:57:46.385Z,21.90
2023-04-15T20:59:47.993Z,21.90
2023-04-15T21:01:49.846Z,21.90
2023-04-15T21:03:51.607Z,21.90
2023-04-15T21:05:53.202Z,21.80
2023-04-15T21:07:54.875Z,21.80
2023-04-15T21:09:56.601Z,21.80
2023-04-15T21:12:01.635Z,21.90
2023-04-15T21:14:07.265Z,21.90
2023-04-15T21:16:09.024Z,21.80
2023-04-15T21:18:10.800Z,21.80
2023-04-15T21:20:12.759Z,21.80
2023-04-15T21:22:14.387Z,21.80
2023-04-15T21:24:16.048Z,21.80
2023-04-15T21:26:18.223Z,21.80
2023-04-15T21:28:19.890Z,21.80
2023-04-15T21:30:23.613Z,21.80
2023-04-15T21:32:25.499Z,21.90
2023-04-15T21:34:27.208Z,21.80
2023-04-15T21:36:28.877Z,21.80
2023-04-15T21:38:30.748Z,21.80
2023-04-15T21:40:32.426Z,21.80
2023-04-15T21:42:34.092Z,21.80
2023-04-15T21:44:35.756Z,21.80
2023-04-15T21:46:37.507Z,21.80
2023-04-15T21:48:41.377Z,21.80
2023-04-15T21:50:43.142Z,21.80
2023-04-15T21:52:44.885Z,21.80
2023-04-15T21:54:46.482Z,21.80
2023-04-15T21:56:49.647Z,21.80
2023-04-15T21:58:56.929Z,21.80
2023-04-15T22:01:00.295Z,21.80
2023-04-15T22:03:02.176Z,21.80
2023-04-15T22:05:05.076Z,21.80
2023-04-15T22:07:06.704Z,21.80
2023-04-15T22:09:08.353Z,21.80
2023-04-15T22:11:10.814Z,21.80
2023-04-15T22:13:13.090Z,21.80
2023-04-15T22:15:16.737Z,21.90
2023-04-15T22:17:18.381Z,21.80
2023-04-15T22:19:20.293Z,21.80
2023-04-15T22:21:22.264Z,21.80
2023-04-15T22:23:23.907Z,21.80
2023-04-15T22:25:25.789Z,21.80
2023-04-15T22:27:27.430Z,21.80
2023-04-15T22:29:29.124Z,21.80
2023-04-15T22:31:31.198Z,21.80
2023-04-15T22:33:32.984Z,21.80
2023-04-15T22:35:36.180Z,21.80
2023-04-15T22:37:37.884Z,21.80
2023-04-15T22:39:39.600Z,21.80
2023-04-15T22:41:41.600Z,21.80
2023-04-15T22:43:43.271Z,21.80
2023-04-15T22:45:51.371Z,21.80
2023-04-15T22:47:53.073Z,21.80
2023-04-15T22:49:54.732Z,21.80
2023-04-15T22:51:56.374Z,21.80
2023-04-15T22:53:58.057Z,21.70
2023-04-15T22:55:59.690Z,21.80
2023-04-15T22:58:01.341Z,21.80
2023-04-15T23:00:03.669Z,21.80
2023-04-15T23:02:05.404Z,21.70
2023-04-15T23:04:08.237Z,21.80
2023-04-15T23:06:11.555Z,21.80
2023-04-15T23:08:13.228Z,21.70
2023-04-15T23:10:14.892Z,21.80
2023-04-15T23:12:16.647Z,21.70
2023-04-15T23:14:18.327Z,21.70
2023-04-15T23:16:20.036Z,21.70
2023-04-15T23:18:21.702Z,21.70
2023-04-15T23:20:23.366Z,21.70
2023-04-15T23:22:25.034Z,21.70
2023-04-15T23:24:26.644Z,21.80
2023-04-15T23:26:28.225Z,21.80
2023-04-15T23:28:30.665Z,21.80
2023-04-15T23:30:32.322Z,21.70
2023-04-15T23:32:34.092Z,21.70
2023-04-15T23:34:36.089Z,21.70
2023-04-15T23:36:37.825Z,21.70
2023-04-15T23:38:39.492Z,21.70
2023-04-15T23:40:41.219Z,21.70
2023-04-15T23:42:42.994Z,21.70
2023-04-15T23:44:44.898Z,21.70
2023-04-15T23:46:47.779Z,21.70
2023-04-15T23:48:49.652Z,21.70
2023-04-15T23:50:51.283Z,21.70
2023-04-15T23:52:52.926Z,21.80
2023-04-15T23:54:54.569Z,21.70
2023-04-15T23:56:56.359Z,21.70
2023-04-15T23:58:58.045Z,21.70
